Hudson, ME

8:23 AM EDT on October 30, 2014 (GMT -0400)
Libbey Lane | Change Station
CLOSE
Current Station
Personal Weather Station
Location: Glenburn, ME
Elevation: 194 ft
Nearby Weather Stations

Elev 194 ft 44.89 °N, 68.87 °W | Updated 59 seconds ago

Clear
Clear
38.7 °F
Feels Like 39 °F
N
2.2
Wind Variable Wind from South

Today
High -- | Low -- °F
--% Chance of Precip.
Yesterday
High -- | Low -- °F
Precip. -- in
7:11 AM 5:26 PM
Waxing Crescent, 43% visible
Pressure 29.87 in
Visibility 10.0 miles
Clouds Few 8000 ft
Windchill 39 °F
Dew Point 38 °F
Humidity 99%
Rainfall 0.00 in
Snow Depth Not available.
UV 0 out of 12
Pollen .30 out of 12
Air Quality Not available.
Flu Activity Not available.
METAR KBGR 301153Z 00000KT 10SM FEW080 03/03 A2987 RMK AO2 SLP114 70017 T00330028 10083 20022 53017

More Conditions Fewer Conditions

Pressure 29.87 in
Visibility 10.0 miles
Clouds Few 8000 ft
Windchill 39 °F
Dew Point 38 °F
Humidity 99%
Rainfall 0.00 in
Snow Depth Not available.
UV 0 out of 12
Pollen .30 out of 12
Air Quality Not available.
Flu Activity Not available.
METAR KBGR 301153Z 00000KT 10SM FEW080 03/03 A2987 RMK AO2 SLP114 70017 T00330028 10083 20022 53017

More Conditions Fewer Conditions

10-Day Weather Forecast

Almanac

Astronomy

Oct. 30, 2014 Rise Set
Actual Time
Civil Twilight
Nautical Twilight
Astronomical Twilight
Moon
Length of Visible Light
Length of Day
Tomorrow will be .
, % of the Moon is Illuminated

Today's Extremes

State Highs State Lows

Community

WunderPhotos

Upload Photos

1,766,351 photos uploaded!

WunderBlogs® & News

Nearby

Air Quality

  Air Quality AQ Index Pollutant
Not available.

Snow Depth

Station Depth Elevation

Earthquake Activity

City Distance Mag. Time & Date
Minimum magnitude displayed is 2.5.

Coastal Water Temperatures

Place Temperature

Nearby Weather Stations